sensor_id;sensor_type;location;lat;lon;timestamp;P1;durP1;ratioP1;P2;durP2;ratioP2
31378;SDS011;61664;48.112;11.662;2022-08-26T00:01:50;6.53;;;6.03;;
31378;SDS011;61664;48.112;11.662;2022-08-26T00:04:21;7.18;;;6.53;;
31378;SDS011;61664;48.112;11.662;2022-08-26T00:06:50;13.05;;;6.80;;
31378;SDS011;61664;48.112;11.662;2022-08-26T00:11:50;6.30;;;5.70;;
31378;SDS011;61664;48.112;11.662;2022-08-26T00:14:19;7.78;;;6.35;;
31378;SDS011;61664;48.112;11.662;2022-08-26T00:16:54;7.10;;;6.40;;
31378;SDS011;61664;48.112;11.662;2022-08-26T00:19:22;8.07;;;7.38;;
31378;SDS011;61664;48.112;11.662;2022-08-26T00:21:50;7.10;;;6.50;;
31378;SDS011;61664;48.112;11.662;2022-08-26T00:24:19;7.00;;;6.05;;
31378;SDS011;61664;48.112;11.662;2022-08-26T00:26:47;10.55;;;7.15;;
31378;SDS011;61664;48.112;11.662;2022-08-26T00:29:14;8.45;;;6.63;;
31378;SDS011;61664;48.112;11.662;2022-08-26T00:31:42;7.22;;;6.53;;
31378;SDS011;61664;48.112;11.662;2022-08-26T00:34:11;7.63;;;6.82;;
31378;SDS011;61664;48.112;11.662;2022-08-26T00:36:40;7.63;;;6.82;;
31378;SDS011;61664;48.112;11.662;2022-08-26T00:39:08;7.80;;;7.10;;
31378;SDS011;61664;48.112;11.662;2022-08-26T00:41:39;9.23;;;6.60;;
31378;SDS011;61664;48.112;11.662;2022-08-26T00:44:08;7.68;;;6.97;;
31378;SDS011;61664;48.112;11.662;2022-08-26T00:46:40;9.32;;;8.35;;
31378;SDS011;61664;48.112;11.662;2022-08-26T00:49:19;8.85;;;7.25;;
31378;SDS011;61664;48.112;11.662;2022-08-26T00:51:55;7.25;;;6.55;;
31378;SDS011;61664;48.112;11.662;2022-08-26T00:54:28;7.22;;;6.53;;
31378;SDS011;61664;48.112;11.662;2022-08-26T00:57:08;7.70;;;6.75;;
31378;SDS011;61664;48.112;11.662;2022-08-26T00:59:42;7.63;;;6.90;;
31378;SDS011;61664;48.112;11.662;2022-08-26T01:02:14;7.95;;;7.25;;
31378;SDS011;61664;48.112;11.662;2022-08-26T01:04:46;7.70;;;7.03;;
31378;SDS011;61664;48.112;11.662;2022-08-26T01:07:22;8.63;;;7.00;;
31378;SDS011;61664;48.112;11.662;2022-08-26T01:09:55;8.63;;;7.65;;
31378;SDS011;61664;48.112;11.662;2022-08-26T01:12:25;7.57;;;6.85;;
31378;SDS011;61664;48.112;11.662;2022-08-26T01:15:04;8.15;;;7.32;;
31378;SDS011;61664;48.112;11.662;2022-08-26T01:17:36;10.20;;;6.80;;
31378;SDS011;61664;48.112;11.662;2022-08-26T01:20:11;7.38;;;6.65;;
31378;SDS011;61664;48.112;11.662;2022-08-26T01:23:07;7.68;;;6.97;;
31378;SDS011;61664;48.112;11.662;2022-08-26T01:25:38;6.60;;;6.15;;
31378;SDS011;61664;48.112;11.662;2022-08-26T01:28:16;6.75;;;6.03;;
31378;SDS011;61664;48.112;11.662;2022-08-26T01:30:50;7.05;;;6.45;;
31378;SDS011;61664;48.112;11.662;2022-08-26T01:33:23;7.40;;;6.57;;
31378;SDS011;61664;48.112;11.662;2022-08-26T01:36:07;7.18;;;6.22;;
31378;SDS011;61664;48.112;11.662;2022-08-26T01:38:36;7.03;;;6.35;;
31378;SDS011;61664;48.112;11.662;2022-08-26T01:41:05;7.00;;;6.45;;
31378;SDS011;61664;48.112;11.662;2022-08-26T01:43:45;10.32;;;5.93;;
31378;SDS011;61664;48.112;11.662;2022-08-26T01:46:17;7.53;;;6.88;;
31378;SDS011;61664;48.112;11.662;2022-08-26T01:48:49;7.15;;;6.53;;
31378;SDS011;61664;48.112;11.662;2022-08-26T01:51:21;7.82;;;7.13;;
31378;SDS011;61664;48.112;11.662;2022-08-26T01:53:51;8.60;;;6.63;;
31378;SDS011;61664;48.112;11.662;2022-08-26T01:56:20;7.18;;;6.60;;
31378;SDS011;61664;48.112;11.662;2022-08-26T01:58:58;7.15;;;6.55;;
31378;SDS011;61664;48.112;11.662;2022-08-26T02:01:29;7.07;;;6.45;;
31378;SDS011;61664;48.112;11.662;2022-08-26T02:04:02;9.75;;;6.90;;
31378;SDS011;61664;48.112;11.662;2022-08-26T02:06:40;6.55;;;5.90;;
31378;SDS011;61664;48.112;11.662;2022-08-26T02:09:09;15.13;;;6.85;;
31378;SDS011;61664;48.112;11.662;2022-08-26T02:11:37;7.80;;;6.97;;
31378;SDS011;61664;48.112;11.662;2022-08-26T02:14:07;6.78;;;6.22;;
31378;SDS011;61664;48.112;11.662;2022-08-26T02:16:54;7.70;;;6.85;;
31378;SDS011;61664;48.112;11.662;2022-08-26T02:19:23;8.27;;;7.38;;
31378;SDS011;61664;48.112;11.662;2022-08-26T02:21:56;7.20;;;6.47;;
31378;SDS011;61664;48.112;11.662;2022-08-26T02:24:37;8.02;;;7.10;;
31378;SDS011;61664;48.112;11.662;2022-08-26T02:27:13;7.25;;;6.55;;
31378;SDS011;61664;48.112;11.662;2022-08-26T02:29:43;7.60;;;6.90;;
31378;SDS011;61664;48.112;11.662;2022-08-26T02:32:16;7.22;;;6.53;;
31378;SDS011;61664;48.112;11.662;2022-08-26T02:34:44;7.35;;;6.65;;
31378;SDS011;61664;48.112;11.662;2022-08-26T02:37:12;7.25;;;6.65;;
31378;SDS011;61664;48.112;11.662;2022-08-26T02:39:42;8.57;;;6.97;;
31378;SDS011;61664;48.112;11.662;2022-08-26T02:42:10;11.07;;;7.07;;
31378;SDS011;61664;48.112;11.662;2022-08-26T02:44:37;7.47;;;6.70;;
31378;SDS011;61664;48.112;11.662;2022-08-26T02:47:05;7.82;;;7.03;;
31378;SDS011;61664;48.112;11.662;2022-08-26T02:49:33;8.18;;;6.80;;
31378;SDS011;61664;48.112;11.662;2022-08-26T02:52:02;8.18;;;6.75;;
31378;SDS011;61664;48.112;11.662;2022-08-26T02:54:29;9.23;;;7.57;;
31378;SDS011;61664;48.112;11.662;2022-08-26T02:56:58;8.68;;;7.78;;
31378;SDS011;61664;48.112;11.662;2022-08-26T02:59:25;8.30;;;7.20;;
31378;SDS011;61664;48.112;11.662;2022-08-26T03:01:54;8.25;;;7.45;;
31378;SDS011;61664;48.112;11.662;2022-08-26T03:04:23;8.38;;;7.53;;
31378;SDS011;61664;48.112;11.662;2022-08-26T03:06:51;8.95;;;7.72;;
31378;SDS011;61664;48.112;11.662;2022-08-26T03:09:20;7.72;;;7.03;;
31378;SDS011;61664;48.112;11.662;2022-08-26T03:11:49;8.25;;;7.55;;
31378;SDS011;61664;48.112;11.662;2022-08-26T03:14:17;8.25;;;7.35;;
31378;SDS011;61664;48.112;11.662;2022-08-26T03:16:44;7.80;;;7.07;;
31378;SDS011;61664;48.112;11.662;2022-08-26T03:19:13;8.25;;;6.78;;
31378;SDS011;61664;48.112;11.662;2022-08-26T03:21:42;9.38;;;7.97;;
31378;SDS011;61664;48.112;11.662;2022-08-26T03:24:12;7.57;;;6.82;;
31378;SDS011;61664;48.112;11.662;2022-08-26T03:26:40;8.55;;;6.95;;
31378;SDS011;61664;48.112;11.662;2022-08-26T03:29:18;7.72;;;7.03;;
31378;SDS011;61664;48.112;11.662;2022-08-26T03:32:05;6.70;;;5.88;;
31378;SDS011;61664;48.112;11.662;2022-08-26T03:34:34;6.70;;;6.20;;
31378;SDS011;61664;48.112;11.662;2022-08-26T03:37:01;8.13;;;6.43;;
31378;SDS011;61664;48.112;11.662;2022-08-26T03:39:28;8.85;;;7.57;;
31378;SDS011;61664;48.112;11.662;2022-08-26T03:41:57;7.47;;;6.88;;
31378;SDS011;61664;48.112;11.662;2022-08-26T03:44:25;7.88;;;7.07;;
31378;SDS011;61664;48.112;11.662;2022-08-26T03:46:52;7.65;;;6.95;;
31378;SDS011;61664;48.112;11.662;2022-08-26T03:49:20;7.57;;;6.72;;
31378;SDS011;61664;48.112;11.662;2022-08-26T03:51:47;6.90;;;6.30;;
31378;SDS011;61664;48.112;11.662;2022-08-26T03:54:15;13.20;;;6.72;;
31378;SDS011;61664;48.112;11.662;2022-08-26T03:56:42;7.70;;;6.93;;
31378;SDS011;61664;48.112;11.662;2022-08-26T03:59:11;7.20;;;6.53;;
31378;SDS011;61664;48.112;11.662;2022-08-26T04:01:39;7.82;;;6.45;;
31378;SDS011;61664;48.112;11.662;2022-08-26T04:04:06;8.07;;;7.38;;
31378;SDS011;61664;48.112;11.662;2022-08-26T04:06:34;10.88;;;7.07;;
31378;SDS011;61664;48.112;11.662;2022-08-26T04:09:14;8.63;;;6.63;;
31378;SDS011;61664;48.112;11.662;2022-08-26T04:11:46;7.75;;;7.05;;
31378;SDS011;61664;48.112;11.662;2022-08-26T04:14:17;7.50;;;6.80;;
31378;SDS011;61664;48.112;11.662;2022-08-26T04:16:49;7.20;;;6.40;;
31378;SDS011;61664;48.112;11.662;2022-08-26T04:19:20;7.63;;;6.97;;
31378;SDS011;61664;48.112;11.662;2022-08-26T04:21:50;8.45;;;6.93;;
31378;SDS011;61664;48.112;11.662;2022-08-26T04:24:19;6.68;;;6.15;;
31378;SDS011;61664;48.112;11.662;2022-08-26T04:26:49;6.88;;;6.28;;
31378;SDS011;61664;48.112;11.662;2022-08-26T04:29:20;7.45;;;6.63;;
31378;SDS011;61664;48.112;11.662;2022-08-26T04:31:51;7.25;;;6.65;;
31378;SDS011;61664;48.112;11.662;2022-08-26T04:34:23;7.45;;;6.75;;
31378;SDS011;61664;48.112;11.662;2022-08-26T04:36:54;7.88;;;7.10;;
31378;SDS011;61664;48.112;11.662;2022-08-26T04:39:22;7.35;;;6.53;;
31378;SDS011;61664;48.112;11.662;2022-08-26T04:41:50;7.05;;;6.35;;
31378;SDS011;61664;48.112;11.662;2022-08-26T04:44:20;7.53;;;6.75;;
31378;SDS011;61664;48.112;11.662;2022-08-26T04:46:50;7.20;;;6.50;;
31378;SDS011;61664;48.112;11.662;2022-08-26T04:49:18;7.03;;;6.53;;
31378;SDS011;61664;48.112;11.662;2022-08-26T04:51:46;8.60;;;7.28;;
31378;SDS011;61664;48.112;11.662;2022-08-26T04:54:14;7.85;;;6.78;;
31378;SDS011;61664;48.112;11.662;2022-08-26T04:56:42;8.05;;;6.32;;
31378;SDS011;61664;48.112;11.662;2022-08-26T04:59:13;7.68;;;6.88;;
31378;SDS011;61664;48.112;11.662;2022-08-26T05:01:44;6.82;;;6.32;;
31378;SDS011;61664;48.112;11.662;2022-08-26T05:04:16;7.28;;;6.68;;
31378;SDS011;61664;48.112;11.662;2022-08-26T05:06:45;7.45;;;6.75;;
31378;SDS011;61664;48.112;11.662;2022-08-26T05:09:14;6.47;;;5.97;;
31378;SDS011;61664;48.112;11.662;2022-08-26T05:11:43;8.73;;;6.63;;
31378;SDS011;61664;48.112;11.662;2022-08-26T05:14:17;6.72;;;6.13;;
31378;SDS011;61664;48.112;11.662;2022-08-26T05:16:45;7.07;;;5.55;;
31378;SDS011;61664;48.112;11.662;2022-08-26T05:19:14;7.13;;;6.53;;
31378;SDS011;61664;48.112;11.662;2022-08-26T05:21:44;6.95;;;6.30;;
31378;SDS011;61664;48.112;11.662;2022-08-26T05:24:13;6.90;;;6.20;;
31378;SDS011;61664;48.112;11.662;2022-08-26T05:26:42;6.60;;;6.20;;
31378;SDS011;61664;48.112;11.662;2022-08-26T05:29:10;6.82;;;6.18;;
31378;SDS011;61664;48.112;11.662;2022-08-26T05:31:37;7.35;;;6.72;;
31378;SDS011;61664;48.112;11.662;2022-08-26T05:34:05;6.93;;;6.43;;
31378;SDS011;61664;48.112;11.662;2022-08-26T05:36:34;6.93;;;6.25;;
31378;SDS011;61664;48.112;11.662;2022-08-26T05:39:03;6.45;;;5.88;;
31378;SDS011;61664;48.112;11.662;2022-08-26T05:41:33;6.07;;;5.60;;
31378;SDS011;61664;48.112;11.662;2022-08-26T05:44:05;6.85;;;6.35;;
31378;SDS011;61664;48.112;11.662;2022-08-26T05:46:36;7.38;;;6.72;;
31378;SDS011;61664;48.112;11.662;2022-08-26T05:49:06;7.30;;;6.57;;
31378;SDS011;61664;48.112;11.662;2022-08-26T05:51:38;8.05;;;6.72;;
31378;SDS011;61664;48.112;11.662;2022-08-26T05:54:08;7.32;;;6.22;;
31378;SDS011;61664;48.112;11.662;2022-08-26T05:56:36;7.13;;;6.43;;
31378;SDS011;61664;48.112;11.662;2022-08-26T05:59:04;10.10;;;6.40;;
31378;SDS011;61664;48.112;11.662;2022-08-26T06:01:40;6.80;;;6.13;;
31378;SDS011;61664;48.112;11.662;2022-08-26T06:04:08;7.70;;;6.80;;
31378;SDS011;61664;48.112;11.662;2022-08-26T06:06:37;6.05;;;5.45;;
31378;SDS011;61664;48.112;11.662;2022-08-26T06:09:08;6.57;;;5.85;;
31378;SDS011;61664;48.112;11.662;2022-08-26T06:11:36;6.25;;;5.65;;
31378;SDS011;61664;48.112;11.662;2022-08-26T06:14:04;5.40;;;5.10;;
31378;SDS011;61664;48.112;11.662;2022-08-26T06:16:34;5.60;;;5.20;;
31378;SDS011;61664;48.112;11.662;2022-08-26T06:19:06;5.40;;;4.90;;
31378;SDS011;61664;48.112;11.662;2022-08-26T06:24:10;4.50;;;4.20;;
31378;SDS011;61664;48.112;11.662;2022-08-26T06:29:27;4.20;;;3.90;;
31378;SDS011;61664;48.112;11.662;2022-08-26T06:31:58;5.65;;;5.03;;
31378;SDS011;61664;48.112;11.662;2022-08-26T06:34:28;4.22;;;3.90;;
31378;SDS011;61664;48.112;11.662;2022-08-26T06:36:56;4.85;;;4.55;;
31378;SDS011;61664;48.112;11.662;2022-08-26T06:39:28;5.70;;;5.13;;
31378;SDS011;61664;48.112;11.662;2022-08-26T06:41:57;4.63;;;4.35;;
31378;SDS011;61664;48.112;11.662;2022-08-26T06:44:28;5.32;;;4.93;;
31378;SDS011;61664;48.112;11.662;2022-08-26T06:46:57;6.47;;;5.97;;
31378;SDS011;61664;48.112;11.662;2022-08-26T06:49:24;5.10;;;4.68;;
31378;SDS011;61664;48.112;11.662;2022-08-26T06:51:53;5.15;;;4.80;;
31378;SDS011;61664;48.112;11.662;2022-08-26T06:54:25;5.10;;;4.78;;
31378;SDS011;61664;48.112;11.662;2022-08-26T06:56:55;5.85;;;5.43;;
31378;SDS011;61664;48.112;11.662;2022-08-26T06:59:22;5.82;;;5.25;;
31378;SDS011;61664;48.112;11.662;2022-08-26T07:01:50;8.40;;;6.28;;
31378;SDS011;61664;48.112;11.662;2022-08-26T07:04:19;6.03;;;5.53;;
31378;SDS011;61664;48.112;11.662;2022-08-26T07:06:48;6.20;;;5.70;;
31378;SDS011;61664;48.112;11.662;2022-08-26T07:09:20;5.55;;;4.78;;
31378;SDS011;61664;48.112;11.662;2022-08-26T07:11:51;5.57;;;5.07;;
31378;SDS011;61664;48.112;11.662;2022-08-26T07:14:21;5.68;;;5.28;;
31378;SDS011;61664;48.112;11.662;2022-08-26T07:16:51;6.15;;;5.55;;
31378;SDS011;61664;48.112;11.662;2022-08-26T07:19:20;5.80;;;5.20;;
31378;SDS011;61664;48.112;11.662;2022-08-26T07:21:57;5.68;;;5.18;;
31378;SDS011;61664;48.112;11.662;2022-08-26T07:24:34;5.57;;;5.00;;
31378;SDS011;61664;48.112;11.662;2022-08-26T07:27:05;5.47;;;4.82;;
31378;SDS011;61664;48.112;11.662;2022-08-26T07:29:35;5.10;;;4.70;;
31378;SDS011;61664;48.112;11.662;2022-08-26T07:32:05;5.13;;;4.75;;
31378;SDS011;61664;48.112;11.662;2022-08-26T07:34:33;5.68;;;5.18;;
31378;SDS011;61664;48.112;11.662;2022-08-26T07:37:03;4.90;;;4.53;;
31378;SDS011;61664;48.112;11.662;2022-08-26T07:39:34;5.30;;;4.88;;
31378;SDS011;61664;48.112;11.662;2022-08-26T07:42:02;5.97;;;5.47;;
31378;SDS011;61664;48.112;11.662;2022-08-26T07:44:33;5.30;;;4.90;;
31378;SDS011;61664;48.112;11.662;2022-08-26T07:47:02;8.38;;;5.05;;
31378;SDS011;61664;48.112;11.662;2022-08-26T07:49:50;5.18;;;4.68;;
31378;SDS011;61664;48.112;11.662;2022-08-26T07:52:19;5.43;;;4.82;;
31378;SDS011;61664;48.112;11.662;2022-08-26T07:54:51;4.55;;;4.25;;
31378;SDS011;61664;48.112;11.662;2022-08-26T07:57:18;5.28;;;4.78;;
31378;SDS011;61664;48.112;11.662;2022-08-26T07:59:46;5.13;;;4.82;;
31378;SDS011;61664;48.112;11.662;2022-08-26T08:02:12;4.70;;;4.40;;
31378;SDS011;61664;48.112;11.662;2022-08-26T08:04:39;4.88;;;4.57;;
31378;SDS011;61664;48.112;11.662;2022-08-26T08:07:07;9.15;;;5.45;;
31378;SDS011;61664;48.112;11.662;2022-08-26T08:09:37;4.95;;;4.65;;
31378;SDS011;61664;48.112;11.662;2022-08-26T08:12:06;4.80;;;4.25;;
31378;SDS011;61664;48.112;11.662;2022-08-26T08:14:39;5.60;;;5.10;;
31378;SDS011;61664;48.112;11.662;2022-08-26T08:17:08;6.63;;;5.20;;
31378;SDS011;61664;48.112;11.662;2022-08-26T08:19:37;4.90;;;4.47;;
31378;SDS011;61664;48.112;11.662;2022-08-26T08:22:04;5.05;;;4.65;;
31378;SDS011;61664;48.112;11.662;2022-08-26T08:24:44;6.65;;;4.78;;
31378;SDS011;61664;48.112;11.662;2022-08-26T08:27:15;7.53;;;5.65;;
31378;SDS011;61664;48.112;11.662;2022-08-26T08:29:49;5.57;;;5.18;;
31378;SDS011;61664;48.112;11.662;2022-08-26T08:32:19;7.15;;;4.78;;
31378;SDS011;61664;48.112;11.662;2022-08-26T08:34:47;6.68;;;4.90;;
31378;SDS011;61664;48.112;11.662;2022-08-26T08:37:15;5.78;;;5.32;;
31378;SDS011;61664;48.112;11.662;2022-08-26T08:39:42;4.95;;;4.55;;
31378;SDS011;61664;48.112;11.662;2022-08-26T08:45:07;4.90;;;4.50;;
31378;SDS011;61664;48.112;11.662;2022-08-26T08:47:49;4.70;;;4.30;;
31378;SDS011;61664;48.112;11.662;2022-08-26T08:50:32;5.97;;;5.43;;
31378;SDS011;61664;48.112;11.662;2022-08-26T08:53:12;4.65;;;4.25;;
31378;SDS011;61664;48.112;11.662;2022-08-26T09:07:25;4.82;;;4.53;;
31378;SDS011;61664;48.112;11.662;2022-08-26T09:12:55;4.72;;;4.30;;
31378;SDS011;61664;48.112;11.662;2022-08-26T09:21:03;5.07;;;4.57;;
31378;SDS011;61664;48.112;11.662;2022-08-26T09:23:37;5.50;;;4.57;;
31378;SDS011;61664;48.112;11.662;2022-08-26T09:31:28;4.72;;;3.72;;
31378;SDS011;61664;48.112;11.662;2022-08-26T09:34:03;3.70;;;3.50;;
31378;SDS011;61664;48.112;11.662;2022-08-26T09:42:04;4.25;;;3.95;;
31378;SDS011;61664;48.112;11.662;2022-08-26T09:44:51;4.32;;;4.03;;
31378;SDS011;61664;48.112;11.662;2022-08-26T09:56:16;4.50;;;4.13;;
31378;SDS011;61664;48.112;11.662;2022-08-26T09:58:48;5.00;;;4.57;;
31378;SDS011;61664;48.112;11.662;2022-08-26T10:03:49;5.00;;;4.35;;
31378;SDS011;61664;48.112;11.662;2022-08-26T10:09:07;4.50;;;4.20;;
31378;SDS011;61664;48.112;11.662;2022-08-26T10:11:50;4.40;;;4.10;;
31378;SDS011;61664;48.112;11.662;2022-08-26T10:14:33;3.90;;;3.70;;
31378;SDS011;61664;48.112;11.662;2022-08-26T10:17:14;4.88;;;4.57;;
31378;SDS011;61664;48.112;11.662;2022-08-26T10:20:14;3.90;;;3.63;;
31378;SDS011;61664;48.112;11.662;2022-08-26T10:22:57;7.90;;;4.47;;
31378;SDS011;61664;48.112;11.662;2022-08-26T10:25:55;5.60;;;4.63;;
31378;SDS011;61664;48.112;11.662;2022-08-26T10:28:34;6.28;;;5.18;;
31378;SDS011;61664;48.112;11.662;2022-08-26T10:34:05;4.53;;;3.97;;
31378;SDS011;61664;48.112;11.662;2022-08-26T10:36:56;4.05;;;3.67;;
31378;SDS011;61664;48.112;11.662;2022-08-26T10:42:33;3.60;;;3.38;;
31378;SDS011;61664;48.112;11.662;2022-08-26T10:45:12;4.03;;;3.50;;
31378;SDS011;61664;48.112;11.662;2022-08-26T10:47:47;3.95;;;3.53;;
31378;SDS011;61664;48.112;11.662;2022-08-26T10:50:21;4.13;;;3.20;;
31378;SDS011;61664;48.112;11.662;2022-08-26T11:04:34;3.67;;;3.40;;
31378;SDS011;61664;48.112;11.662;2022-08-26T11:17:53;5.22;;;4.13;;
31378;SDS011;61664;48.112;11.662;2022-08-26T11:28:38;4.30;;;3.95;;
31378;SDS011;61664;48.112;11.662;2022-08-26T11:33:53;3.78;;;3.47;;
31378;SDS011;61664;48.112;11.662;2022-08-26T11:39:28;7.47;;;3.72;;
31378;SDS011;61664;48.112;11.662;2022-08-26T11:47:52;5.53;;;3.33;;
31378;SDS011;61664;48.112;11.662;2022-08-26T11:50:26;4.95;;;2.88;;
31378;SDS011;61664;48.112;11.662;2022-08-26T11:55:32;3.13;;;2.85;;
31378;SDS011;61664;48.112;11.662;2022-08-26T11:58:07;2.78;;;2.55;;
31378;SDS011;61664;48.112;11.662;2022-08-26T12:03:24;3.25;;;2.95;;
31378;SDS011;61664;48.112;11.662;2022-08-26T12:06:49;2.80;;;2.45;;
31378;SDS011;61664;48.112;11.662;2022-08-26T12:09:12;3.33;;;2.45;;
31378;SDS011;61664;48.112;11.662;2022-08-26T12:17:37;2.58;;;2.38;;
31378;SDS011;61664;48.112;11.662;2022-08-26T12:20:15;2.88;;;2.67;;
31378;SDS011;61664;48.112;11.662;2022-08-26T12:23:35;3.00;;;2.63;;
31378;SDS011;61664;48.112;11.662;2022-08-26T12:28:51;3.75;;;2.78;;
31378;SDS011;61664;48.112;11.662;2022-08-26T12:34:07;3.90;;;2.67;;
31378;SDS011;61664;48.112;11.662;2022-08-26T12:36:54;4.63;;;3.05;;
31378;SDS011;61664;48.112;11.662;2022-08-26T12:41:57;4.68;;;3.35;;
31378;SDS011;61664;48.112;11.662;2022-08-26T12:44:43;3.22;;;2.70;;
31378;SDS011;61664;48.112;11.662;2022-08-26T12:47:30;3.45;;;3.15;;
31378;SDS011;61664;48.112;11.662;2022-08-26T12:55:43;6.25;;;3.50;;
31378;SDS011;61664;48.112;11.662;2022-08-26T13:00:42;3.45;;;3.08;;
31378;SDS011;61664;48.112;11.662;2022-08-26T13:06:10;3.10;;;2.88;;
31378;SDS011;61664;48.112;11.662;2022-08-26T13:08:51;2.80;;;2.60;;
31378;SDS011;61664;48.112;11.662;2022-08-26T13:11:26;3.22;;;3.03;;
31378;SDS011;61664;48.112;11.662;2022-08-26T13:14:02;3.40;;;3.20;;
31378;SDS011;61664;48.112;11.662;2022-08-26T13:16:36;4.47;;;3.45;;
31378;SDS011;61664;48.112;11.662;2022-08-26T13:19:10;3.35;;;2.78;;
31378;SDS011;61664;48.112;11.662;2022-08-26T13:21:43;3.33;;;3.03;;
31378;SDS011;61664;48.112;11.662;2022-08-26T13:24:20;3.88;;;2.70;;
31378;SDS011;61664;48.112;11.662;2022-08-26T13:27:04;3.53;;;3.17;;
31378;SDS011;61664;48.112;11.662;2022-08-26T13:29:33;3.40;;;3.10;;
31378;SDS011;61664;48.112;11.662;2022-08-26T13:32:02;3.17;;;2.97;;
31378;SDS011;61664;48.112;11.662;2022-08-26T13:34:31;3.53;;;3.22;;
31378;SDS011;61664;48.112;11.662;2022-08-26T13:37:00;3.38;;;3.08;;
31378;SDS011;61664;48.112;11.662;2022-08-26T13:39:27;3.17;;;2.97;;
31378;SDS011;61664;48.112;11.662;2022-08-26T13:41:54;3.00;;;2.65;;
31378;SDS011;61664;48.112;11.662;2022-08-26T13:44:21;3.92;;;2.78;;
31378;SDS011;61664;48.112;11.662;2022-08-26T13:46:48;3.53;;;2.92;;
31378;SDS011;61664;48.112;11.662;2022-08-26T13:49:15;3.40;;;3.10;;
31378;SDS011;61664;48.112;11.662;2022-08-26T13:51:42;4.55;;;2.97;;
31378;SDS011;61664;48.112;11.662;2022-08-26T13:54:09;3.03;;;2.55;;
31378;SDS011;61664;48.112;11.662;2022-08-26T13:56:36;3.45;;;3.13;;
31378;SDS011;61664;48.112;11.662;2022-08-26T13:59:03;4.72;;;2.72;;
31378;SDS011;61664;48.112;11.662;2022-08-26T14:01:31;2.83;;;2.63;;
31378;SDS011;61664;48.112;11.662;2022-08-26T14:03:59;3.47;;;3.03;;
31378;SDS011;61664;48.112;11.662;2022-08-26T14:06:28;3.00;;;2.80;;
31378;SDS011;61664;48.112;11.662;2022-08-26T14:08:55;4.40;;;2.92;;
31378;SDS011;61664;48.112;11.662;2022-08-26T14:11:22;3.33;;;3.05;;
31378;SDS011;61664;48.112;11.662;2022-08-26T14:13:50;3.08;;;2.88;;
31378;SDS011;61664;48.112;11.662;2022-08-26T14:16:26;3.22;;;2.92;;
31378;SDS011;61664;48.112;11.662;2022-08-26T14:18:58;2.85;;;2.65;;
31378;SDS011;61664;48.112;11.662;2022-08-26T14:21:28;3.15;;;2.85;;
31378;SDS011;61664;48.112;11.662;2022-08-26T14:23:58;2.95;;;2.75;;
31378;SDS011;61664;48.112;11.662;2022-08-26T14:26:26;2.60;;;2.50;;
31378;SDS011;61664;48.112;11.662;2022-08-26T14:28:58;2.63;;;2.42;;
31378;SDS011;61664;48.112;11.662;2022-08-26T14:31:27;3.17;;;2.75;;
31378;SDS011;61664;48.112;11.662;2022-08-26T14:33:57;2.95;;;2.75;;
31378;SDS011;61664;48.112;11.662;2022-08-26T14:36:31;2.80;;;2.60;;
31378;SDS011;61664;48.112;11.662;2022-08-26T14:39:00;7.65;;;3.15;;
31378;SDS011;61664;48.112;11.662;2022-08-26T14:41:37;2.50;;;2.28;;
31378;SDS011;61664;48.112;11.662;2022-08-26T14:44:20;3.30;;;2.40;;
31378;SDS011;61664;48.112;11.662;2022-08-26T14:46:55;3.03;;;2.60;;
31378;SDS011;61664;48.112;11.662;2022-08-26T14:49:26;3.88;;;2.80;;
31378;SDS011;61664;48.112;11.662;2022-08-26T14:51:53;2.90;;;2.65;;
31378;SDS011;61664;48.112;11.662;2022-08-26T14:54:20;3.10;;;2.90;;
31378;SDS011;61664;48.112;11.662;2022-08-26T14:56:48;2.80;;;2.58;;
31378;SDS011;61664;48.112;11.662;2022-08-26T14:59:20;3.85;;;2.78;;
31378;SDS011;61664;48.112;11.662;2022-08-26T15:01:56;3.10;;;2.90;;
31378;SDS011;61664;48.112;11.662;2022-08-26T15:04:24;2.22;;;2.13;;
31378;SDS011;61664;48.112;11.662;2022-08-26T15:06:52;2.38;;;2.22;;
31378;SDS011;61664;48.112;11.662;2022-08-26T15:09:24;4.82;;;2.58;;
31378;SDS011;61664;48.112;11.662;2022-08-26T15:11:53;2.80;;;2.60;;
31378;SDS011;61664;48.112;11.662;2022-08-26T15:14:20;2.90;;;2.70;;
31378;SDS011;61664;48.112;11.662;2022-08-26T15:16:49;3.30;;;3.00;;
31378;SDS011;61664;48.112;11.662;2022-08-26T15:19:22;2.97;;;2.78;;
31378;SDS011;61664;48.112;11.662;2022-08-26T15:21:51;2.88;;;2.78;;
31378;SDS011;61664;48.112;11.662;2022-08-26T15:24:19;3.28;;;3.08;;
31378;SDS011;61664;48.112;11.662;2022-08-26T15:26:49;2.40;;;2.30;;
31378;SDS011;61664;48.112;11.662;2022-08-26T15:29:17;4.63;;;2.75;;
31378;SDS011;61664;48.112;11.662;2022-08-26T15:31:44;2.40;;;2.20;;
31378;SDS011;61664;48.112;11.662;2022-08-26T15:34:12;2.67;;;2.30;;
31378;SDS011;61664;48.112;11.662;2022-08-26T15:36:42;2.47;;;2.28;;
31378;SDS011;61664;48.112;11.662;2022-08-26T15:39:12;2.33;;;2.13;;
31378;SDS011;61664;48.112;11.662;2022-08-26T15:41:41;5.50;;;2.38;;
31378;SDS011;61664;48.112;11.662;2022-08-26T15:44:08;2.95;;;2.63;;
31378;SDS011;61664;48.112;11.662;2022-08-26T15:46:37;2.88;;;2.67;;
31378;SDS011;61664;48.112;11.662;2022-08-26T15:49:04;2.88;;;2.65;;
31378;SDS011;61664;48.112;11.662;2022-08-26T15:51:33;4.78;;;3.05;;
31378;SDS011;61664;48.112;11.662;2022-08-26T15:54:11;2.83;;;2.63;;
31378;SDS011;61664;48.112;11.662;2022-08-26T15:56:41;3.15;;;2.85;;
31378;SDS011;61664;48.112;11.662;2022-08-26T15:59:12;3.20;;;2.50;;
31378;SDS011;61664;48.112;11.662;2022-08-26T16:01:41;2.95;;;2.70;;
31378;SDS011;61664;48.112;11.662;2022-08-26T16:04:08;3.40;;;3.00;;
31378;SDS011;61664;48.112;11.662;2022-08-26T16:06:37;3.50;;;3.00;;
31378;SDS011;61664;48.112;11.662;2022-08-26T16:09:07;3.20;;;3.00;;
31378;SDS011;61664;48.112;11.662;2022-08-26T16:11:35;3.25;;;2.95;;
31378;SDS011;61664;48.112;11.662;2022-08-26T16:14:03;3.42;;;3.13;;
31378;SDS011;61664;48.112;11.662;2022-08-26T16:16:35;3.20;;;3.00;;
31378;SDS011;61664;48.112;11.662;2022-08-26T16:19:07;3.40;;;2.80;;
31378;SDS011;61664;48.112;11.662;2022-08-26T16:21:35;3.45;;;2.92;;
31378;SDS011;61664;48.112;11.662;2022-08-26T16:24:02;3.50;;;3.22;;
31378;SDS011;61664;48.112;11.662;2022-08-26T16:26:31;4.57;;;3.20;;
31378;SDS011;61664;48.112;11.662;2022-08-26T16:29:11;5.30;;;2.97;;
31378;SDS011;61664;48.112;11.662;2022-08-26T16:31:40;4.15;;;3.00;;
31378;SDS011;61664;48.112;11.662;2022-08-26T16:34:07;7.72;;;3.30;;
31378;SDS011;61664;48.112;11.662;2022-08-26T16:36:36;3.97;;;2.88;;
31378;SDS011;61664;48.112;11.662;2022-08-26T16:39:05;3.08;;;2.88;;
31378;SDS011;61664;48.112;11.662;2022-08-26T16:41:33;2.88;;;2.65;;
31378;SDS011;61664;48.112;11.662;2022-08-26T16:44:01;3.20;;;2.90;;
31378;SDS011;61664;48.112;11.662;2022-08-26T16:46:29;3.85;;;2.78;;
31378;SDS011;61664;48.112;11.662;2022-08-26T16:48:57;3.95;;;3.15;;
31378;SDS011;61664;48.112;11.662;2022-08-26T16:51:26;3.45;;;3.15;;
31378;SDS011;61664;48.112;11.662;2022-08-26T16:53:53;3.47;;;2.85;;
31378;SDS011;61664;48.112;11.662;2022-08-26T16:56:23;3.33;;;3.03;;
31378;SDS011;61664;48.112;11.662;2022-08-26T16:59:00;2.63;;;2.42;;
31378;SDS011;61664;48.112;11.662;2022-08-26T17:01:30;4.80;;;2.83;;
31378;SDS011;61664;48.112;11.662;2022-08-26T17:03:57;3.38;;;2.75;;
31378;SDS011;61664;48.112;11.662;2022-08-26T17:06:24;3.47;;;3.20;;
31378;SDS011;61664;48.112;11.662;2022-08-26T17:08:51;5.65;;;3.03;;
31378;SDS011;61664;48.112;11.662;2022-08-26T17:11:18;3.28;;;2.97;;
31378;SDS011;61664;48.112;11.662;2022-08-26T17:13:45;3.53;;;3.10;;